Flight Track Log - Related Links

Times and Time Zones

All times are in EDT time to prevent confusion due to time zone crossing. See the ACA831 flight status page for this flight to view local times or setup timezone preferences in your user account.

Time Position Orientation Groundspeed Altitude Reporting Facility
EDT Latitude Longitude Course Direction KTS MPH feet Rate Location/Type
Fri 06:23:57 AM 46.2330 6.1020 224° Southwest 173 199 1,600  Level FlightAware ADS-B
Fri 06:24:27 AM 46.2160 6.0770 226° Southwest 164 189 3,200 2,618 Climbing FlightAware ADS-B
Fri 06:24:52 AM 46.2020 6.0550 227° Southwest 186 214 4,000 2,291 Climbing FlightAware ADS-B
Fri 06:25:22 AM 46.1840 6.0290 225° Southwest 184 212 5,300 2,509 Climbing FlightAware ADS-B
Fri 06:25:47 AM 46.1690 6.0070 225° Southwest 183 211 6,300 2,182 Climbing FlightAware ADS-B
Fri 06:26:17 AM 46.1510 5.9800 226° Southwest 189 217 7,300 1,600 Climbing FlightAware ADS-B
Fri 06:26:32 AM 46.1470 5.9610 253° West 211 243 7,500 900 Climbing FlightAware ADS-B
Fri 06:26:57 AM 46.1600 5.9300 301° West 239 275 7,900 1,527 Climbing FlightAware ADS-B
Fri 06:27:27 AM 46.1900 5.9010 326° Northwest 265 305 8,900 2,400 Climbing FlightAware ADS-B
Fri 06:28:07 AM 46.2360 5.8620 330° Northwest 286 329 10,700 1,906 Climbing FlightAware ADS-B
Fri 06:28:52 AM 46.2940 5.8100 328° Northwest 357 411 11,600 1,765 Climbing FlightAware ADS-B
Fri 06:29:32 AM 46.3540 5.7570 329° Northwest 377 434 13,200 2,700 Climbing FlightAware ADS-B
Fri 06:30:12 AM 46.4150 5.7030 329° Northwest 394 453 15,200 2,824 Climbing FlightAware ADS-B
Fri 06:30:57 AM 46.4860 5.6390 328° Northwest 403 464 17,200 2,612 Climbing FlightAware ADS-B
Fri 06:31:37 AM 46.5510 5.5810 328° Northwest 411 473 18,900 2,400 Climbing FlightAware ADS-B
Fri 06:32:22 AM 46.6220 5.5050 324° Northwest 429 494 20,600 2,080 Climbing FlightAware ADS-B
Fri 06:32:52 AM 46.6590 5.4630 322° Northwest 434 499 21,500 2,025 Climbing FlightAware ADS-B
Fri 06:33:42 AM 46.7420 5.3620 320° Northwest 448 516 23,300 2,084 Climbing FlightAware ADS-B
Fri 06:34:27 AM 46.8090 5.2740 318° Northwest 454 522 24,800 1,976 Climbing FlightAware ADS-B
Fri 06:35:07 AM 46.8670 5.1910 316° Northwest 460 529 26,100 1,906 Climbing FlightAware ADS-B
Fri 06:35:52 AM 46.9370 5.0900 315° West 467 537 27,500 2,047 Climbing FlightAware ADS-B
Fri 06:36:32 AM 46.9940 5.0060 315° West 463 533 29,000 2,250 Climbing FlightAware ADS-B
Fri 06:37:12 AM 47.0660 4.9020 315° West 461 531 30,500 1,976 Climbing FlightAware ADS-B
Fri 06:37:57 AM 47.1330 4.8050 315° West 458 527 31,800 1,059 Climbing FlightAware ADS-B
Fri 06:38:37 AM 47.1960 4.7140 316° Northwest 462 532 32,000 141 Climbing FlightAware ADS-B
Fri 06:39:22 AM 47.2630 4.6150 315° West 461 531 32,000  Level FlightAware ADS-B
Fri 06:40:02 AM 47.3280 4.5200 315° West 462 532 32,000  Level FlightAware ADS-B
Fri 06:40:42 AM 47.3840 4.4390 316° Northwest 461 531 32,000  Level FlightAware ADS-B
Fri 06:41:27 AM 47.4520 4.3430 316° Northwest 462 532 32,000  Level FlightAware ADS-B
Fri 06:42:07 AM 47.5150 4.2570 317° Northwest 462 532 32,000  Level FlightAware ADS-B
Fri 06:42:52 AM 47.5880 4.1580 318° Northwest 462 532 32,000  Level FlightAware ADS-B
Fri 06:43:32 AM 47.6557 4.0633 317° Northwest 462 532 32,000  Level FlightAware ADS-B
Fri 06:44:08 AM 47.7110 3.9862 317° Northwest 462 532 32,000  Level FlightAware ADS-B
Fri 06:44:41 AM 47.7619 3.9153 317° Northwest 461 531 32,000  Level FlightAware ADS-B
Fri 06:45:11 AM 47.8088 3.8493 317° Northwest 460 529 32,000  Level FlightAware ADS-B
Fri 06:45:42 AM 47.8562 3.7832 317° Northwest 461 531 32,000  Level FlightAware ADS-B
Fri 06:46:20 AM 47.9148 3.7006 317° Northwest 460 529 32,000  Level FlightAware ADS-B
Fri 06:46:52 AM 47.9640 3.6312 317° Northwest 458 527 32,000  Level FlightAware ADS-B
Fri 06:47:24 AM 48.0130 3.5620 317° Northwest 456 525 32,000  Level FlightAware ADS-B
Fri 06:47:57 AM 48.0639 3.4901 317° Northwest 453 521 32,000  Level FlightAware ADS-B
Fri 06:48:27 AM 48.1050 3.4330 317° Northwest 451 519 32,000  Level FlightAware ADS-B
Fri 06:48:39 AM 48.1277 3.3997 316° Northwest 451 519 32,000  Level FlightAware ADS-B
Fri 06:49:42 AM 48.2217 3.2650 316° Northwest 451 519 32,000  Level FlightAware ADS-B
Fri 06:50:15 AM 48.2709 3.1941 316° Northwest 449 517 32,000  Level FlightAware ADS-B
Fri 06:50:47 AM 48.3190 3.1250 316° Northwest 450 518 32,000  Level FlightAware ADS-B
Fri 06:51:18 AM 48.3664 3.0568 316° Northwest 451 519 32,000  Level FlightAware ADS-B
Fri 06:51:38 AM 48.3949 3.0144 315° West 449 517 32,000  Level FlightAware ADS-B
Fri 06:51:55 AM 48.4159 2.9695 305° West 447 514 32,000  Level FlightAware ADS-B
Fri 06:52:26 AM 48.4384 2.8801 291° West 447 514 32,000  Level FlightAware ADS-B
Fri 06:52:30 AM 48.4405 2.8697 287° West 445 512 32,000  Level FlightAware ADS-B
Fri 06:53:00 AM 48.4584 2.7793 287° West 446 513 32,000  Level FlightAware ADS-B
Fri 06:53:32 AM 48.4762 2.6865 286° West 443 510 32,000  Level FlightAware ADS-B
Fri 06:54:06 AM 48.4954 2.5838 286° West 442 509 32,000  Level FlightAware ADS-B
Fri 06:54:38 AM 48.5126 2.4914 286° West 441 507 32,000  Level FlightAware ADS-B
Fri 06:55:24 AM 48.5383 2.3542 286° West 440 506 32,000  Level FlightAware ADS-B
Fri 06:55:57 AM 48.5564 2.2571 286° West 441 507 32,000  Level FlightAware ADS-B
Fri 06:56:28 AM 48.5720 2.1655 284° West 441 507 32,000  Level FlightAware ADS-B
Fri 06:57:00 AM 48.5860 2.0695 282° West 442 509 32,000 -1,875 Level FlightAware ADS-B
Fri 06:57:16 AM 48.5940 2.0198 282° West 466 536 30,500  Descending FlightAware UK
Fri 06:57:30 AM 48.5987 1.9791 282° West 442 509 32,000 2,000 Climbing FlightAware ADS-B
Fri 06:58:01 AM 48.6120 1.8842 282° West 442 509 32,000  Level FlightAware ADS-B
Fri 06:58:33 AM 48.6291 1.7896 285° West 442 509 32,000 -1,579 Level FlightAware ADS-B
Fri 06:58:58 AM 48.6419 1.7144 285° West 464 534 30,500  Descending FlightAware UK
Fri 06:59:09 AM 48.6484 1.6848 285° West 442 509 32,000 2,143 Climbing FlightAware ADS-B
Fri 06:59:40 AM 48.6659 1.5924 286° West 443 510 32,000 -1,837 Level FlightAware ADS-B
Fri 06:59:58 AM 48.6763 1.5366 286° West 464 534 30,500  Descending FlightAware UK
Fri 07:00:14 AM 48.6847 1.4896 286° West 443 510 32,000  Climbing FlightAware ADS-B
Fri 07:00:40 AM 48.6993 1.4123 286° West 466 536 30,500  Descending FlightAware UK
Fri 07:01:01 AM 48.7101 1.3500 286° West 443 510 32,000  Climbing FlightAware ADS-B
Fri 07:01:16 AM 48.7185 1.3040 286° West 466 536 30,500 -2,308 Descending FlightAware UK
Fri 07:01:40 AM 48.7313 1.2322 285° West 470 541 30,500 2,368 Level FlightAware UK
Fri 07:01:54 AM 48.7383 1.1935 285° West 443 510 32,000  Climbing FlightAware ADS-B
Fri 07:02:10 AM 48.7472 1.1430 285° West 468 539 30,500  Descending FlightAware UK
Fri 07:02:26 AM 48.7554 1.0980 285° West 442 509 32,000  Climbing FlightAware ADS-B
Fri 07:02:46 AM 48.7663 1.0354 285° West 472 543 30,500  Descending FlightAware UK
Fri 07:02:58 AM 48.7728 1.0005 285° West 442 509 32,000 2,093 Climbing FlightAware ADS-B
Fri 07:03:29 AM 48.7893 0.9078 285° West 440 506 32,000 -1,875 Level FlightAware ADS-B
Fri 07:03:46 AM 48.7981 0.8574 285° West 474 545 30,500  Descending FlightAware UK
Fri 07:04:04 AM 48.8076 0.8044 285° West 438 504 32,000  Climbing FlightAware ADS-B
Fri 07:04:22 AM 48.8169 0.7506 285° West 472 543 30,500  Descending FlightAware UK
Fri 07:04:36 AM 48.8241 0.7104 285° West 436 502 32,000  Climbing FlightAware ADS-B
Fri 07:04:52 AM 48.8323 0.6627 285° West 468 539 30,500  Descending FlightAware UK
Fri 07:05:13 AM 48.8430 0.6024 285° West 434 499 32,000  Climbing FlightAware ADS-B
Fri 07:05:34 AM 48.8537 0.5392 285° West 466 536 30,500  Descending FlightAware UK
Fri 07:05:44 AM 48.8591 0.5101 285° West 433 498 32,000 2,000 Climbing FlightAware ADS-B
Fri 07:06:19 AM 48.8771 0.4066 285° West 432 497 32,000 -1,636 Level FlightAware ADS-B
Fri 07:06:39 AM 48.8873 0.3471 285° West 466 536 30,500  Descending FlightAware UK
Fri 07:06:53 AM 48.8940 0.3087 285° West 431 496 32,000  Climbing FlightAware ADS-B
Fri 07:07:27 AM 48.9113 0.2071 285° West 466 536 30,500  Descending FlightAware UK
Fri 07:07:37 AM 48.9160 0.1820 285° West 431 496 32,000 3,333 Climbing FlightAware ADS-B
Fri 07:07:54 AM 48.9246 0.1308 284° West 431 496 32,000 -2,813 Level FlightAware ADS-B
Fri 07:08:09 AM 48.9321 0.0854 284° West 468 539 30,500  Descending FlightAware UK
Fri 07:08:25 AM 48.9399 0.0411 284° West 431 496 32,000  Climbing FlightAware ADS-B
Fri 07:08:45 AM 48.9497 -0.0195 284° West 466 536 30,500  Descending FlightAware UK
Fri 07:08:57 AM 48.9550 -0.0480 284° West 429 494 32,000 3,462 Climbing FlightAware ADS-B
Fri 07:09:11 AM 48.9630 -0.0953 284° West 429 494 32,000  Level FlightAware ADS-B
Fri 07:09:42 AM 48.9770 -0.1790 284° West 428 493 32,000  Level FlightAware ADS-B
Fri 07:09:55 AM 48.9843 -0.2225 284° West 428 493 32,000 -2,727 Level FlightAware ADS-B
Fri 07:10:15 AM 48.9931 -0.2810 284° West 466 536 30,500  Descending FlightAware UK
Fri 07:10:27 AM 48.9996 -0.3144 284° West 427 491 32,000 1,731 Climbing FlightAware ADS-B
Fri 07:11:07 AM 49.0190 -0.4300 284° West 427 491 32,000 -1,500 Level FlightAware ADS-B
Fri 07:11:27 AM 49.0275 -0.4897 284° West 466 536 30,500  Descending FlightAware UK
Fri 07:11:47 AM 49.0380 -0.5460 284° West 428 493 32,000 2,903 Climbing FlightAware ADS-B
Fri 07:11:58 AM 49.0437 -0.5814 284° West 427 491 32,000 -1,957 Level FlightAware ADS-B
Fri 07:12:33 AM 49.0594 -0.6826 284° West 468 539 30,500 -1,525 Descending FlightAware UK
Fri 07:12:57 AM 49.0709 -0.7526 284° West 464 534 30,500 2,308 Level FlightAware UK
Fri 07:13:12 AM 49.0770 -0.7870 284° West 431 496 32,000  Climbing FlightAware ADS-B
Fri 07:13:39 AM 49.0909 -0.8765 284° West 470 541 30,500  Descending FlightAware UK
Fri 07:13:52 AM 49.0970 -0.9090 284° West 431 496 32,000 1,552 Climbing FlightAware ADS-B
Fri 07:14:37 AM 49.1180 -1.0420 284° West 431 496 32,000 -1,286 Level FlightAware ADS-B
Fri 07:15:02 AM 49.1305 -1.1239 284° West 470 541 30,500  Descending FlightAware UK
Fri 07:15:17 AM 49.1360 -1.1540 284° West 431 496 32,000  Climbing FlightAware ADS-B
Fri 07:15:44 AM 49.1498 -1.2483 284° West 468 539 30,500  Descending FlightAware UK
Fri 07:15:57 AM 49.1550 -1.2750 284° West 431 496 32,000  Climbing FlightAware ADS-B
Fri 07:16:20 AM 49.1667 -1.3544 284° West 470 541 30,500  Descending FlightAware UK
Fri 07:16:32 AM 49.1710 -1.3790 283° West 430 495 32,000  Climbing FlightAware ADS-B
Fri 07:16:38 AM 49.1749 -1.4069 283° West 470 541 30,500  Descending FlightAware UK
Fri 07:17:22 AM 49.1930 -1.5190 284° West 429 494 32,000  Climbing FlightAware ADS-B
Fri 07:17:38 AM 49.2025 -1.5831 284° West 470 541 30,500  Descending FlightAware UK
Fri 07:18:02 AM 49.2120 -1.6430 284° West 428 493 32,000 1,406 Climbing FlightAware ADS-B
Fri 07:18:42 AM 49.2280 -1.7490 283° West 427 491 32,000  Level FlightAware ADS-B
Fri 07:19:27 AM 49.2500 -1.8920 283° West 426 490 32,000 -1,324 Level FlightAware ADS-B
Fri 07:19:50 AM 49.2620 -1.9709 283° West 468 539 30,500  Descending FlightAware UK
Fri 07:20:07 AM 49.2680 -2.0090 283° West 426 490 32,000  Climbing FlightAware ADS-B
Fri 07:20:26 AM 49.2765 -2.0770 283° West 466 536 30,500 -2,432 Descending FlightAware UK
Fri 07:20:44 AM 49.2847 -2.1293 283° West 466 536 30,500 3,462 Level FlightAware UK
Fri 07:20:52 AM 49.2870 -2.1420 283° West 426 490 32,000  Climbing FlightAware ADS-B
Fri 07:21:14 AM 49.2984 -2.2168 283° West 468 539 30,500 -2,250 Descending FlightAware UK
Fri 07:21:32 AM 49.3062 -2.2698 283° West 468 539 30,500 5,000 Level FlightAware UK
Fri 07:21:32 AM 49.3030 -2.2490 283° West 426 490 32,000  Climbing FlightAware ADS-B
Fri 07:21:49 AM 49.3142 -2.3224 283° West 468 539 30,500 -2,500 Descending FlightAware UK
Fri 07:22:08 AM 49.3222 -2.3761 283° West 468 539 30,500 3,214 Level FlightAware UK
Fri 07:22:17 AM 49.3230 -2.3830 283° West 427 491 32,000  Climbing FlightAware ADS-B
Fri 07:22:32 AM 49.3324 -2.4471 283° West 468 539 30,500 -2,813 Descending FlightAware UK
Fri 07:22:49 AM 49.3398 -2.4996 282° West 468 539 30,500 3,600 Level FlightAware UK
Fri 07:22:57 AM 49.3410 -2.5030 282° West 426 490 32,000 750 Climbing FlightAware ADS-B
Fri 07:23:13 AM 49.3499 -2.5703 282° West 468 539 30,800 -1,412 Descending FlightAware UK
Fri 07:23:31 AM 49.3576 -2.6233 283° West 472 543 31,200 4,552 Climbing FlightAware UK
Fri 07:23:42 AM 49.3610 -2.6410 283° West 426 490 33,000 1,800 Climbing FlightAware ADS-B
Fri 07:24:01 AM 49.3703 -2.7117 283° West 464 534 32,100 1,350 Descending FlightAware UK
Fri 07:24:22 AM 49.3770 -2.7540 283° West 425 489 33,900 571 Climbing FlightAware ADS-B
Fri 07:24:43 AM 49.3880 -2.8347 283° West 468 539 32,500 150 Descending FlightAware UK
Fri 07:25:02 AM 49.3930 -2.8670 283° West 432 497 34,000  Climbing FlightAware ADS-B
Fri 07:25:19 AM 49.4032 -2.9420 283° West 472 543 32,500  Descending FlightAware UK
Fri 07:25:47 AM 49.4130 -3.0110 283° West 426 490 34,000 1,429 Climbing FlightAware ADS-B
Fri 07:26:22 AM 49.4270 -3.1120 283° West 420 483 34,000 -2,368 Level FlightAware ADS-B
Fri 07:26:25 AM 49.4307 -3.1361 283° West 464 534 32,500 -6,000 Descending FlightAware UK
Fri 07:26:37 AM 49.4354 -3.1705 283° West 462 532 32,500  Level FlightAware UK
Fri 07:26:55 AM 49.4425 -3.2225 282° West 460 529 32,500 2,571 Level FlightAware UK
Fri 07:27:12 AM 49.4470 -3.2540 282° West 416 479 34,000  Climbing FlightAware ADS-B
Fri 07:27:31 AM 49.4568 -3.3260 282° West 456 525 32,500 -2,432 Descending FlightAware UK
Fri 07:27:49 AM 49.4639 -3.3770 282° West 458 527 32,500 4,286 Level FlightAware UK
Fri 07:27:52 AM 49.4640 -3.3810 282° West 413 475 34,000  Climbing FlightAware ADS-B
Fri 07:28:07 AM 49.4711 -3.4286 282° West 458 527 32,500  Descending FlightAware UK
Fri 07:28:32 AM 49.4800 -3.4960 282° West 412 474 34,000  Climbing FlightAware ADS-B
Fri 07:28:49 AM 49.4874 -3.5490 282° West 460 529 32,500 -2,571 Descending FlightAware UK
Fri 07:29:07 AM 49.4943 -3.6004 282° West 460 529 32,500 3,214 Level FlightAware UK
Fri 07:29:17 AM 49.4970 -3.6200 282° West 411 473 34,000  Climbing FlightAware ADS-B
Fri 07:29:37 AM 49.5057 -3.6856 282° West 460 529 32,500  Descending FlightAware UK
Fri 07:29:57 AM 49.5120 -3.7360 282° West 412 474 34,000  Climbing FlightAware ADS-B
Fri 07:30:19 AM 49.5218 -3.8056 282° West 462 532 32,500 -2,250 Descending FlightAware UK
Fri 07:30:37 AM 49.5286 -3.8572 282° West 464 534 32,500 3,913 Level FlightAware UK
Fri 07:30:42 AM 49.5300 -3.8660 282° West 412 474 34,000  Climbing FlightAware ADS-B
Fri 07:31:19 AM 49.5446 -3.9777 282° West 462 532 32,500  Descending FlightAware UK
Fri 07:31:22 AM 49.5450 -3.9840 282° West 413 475 34,000  Climbing FlightAware ADS-B
Fri 07:31:37 AM 49.5513 -4.0294 282° West 462 532 32,500 -2,727 Descending FlightAware UK
Fri 07:31:55 AM 49.5580 -4.0812 281° West 462 532 32,500 3,000 Level FlightAware UK
Fri 07:32:07 AM 49.5620 -4.1110 281° West 413 475 34,000  Climbing FlightAware ADS-B
Fri 07:32:25 AM 49.5690 -4.1673 281° West 462 532 32,500  Descending FlightAware UK
Fri 07:32:47 AM 49.5770 -4.2260 281° West 414 476 34,000  Climbing FlightAware ADS-B
Fri 07:33:06 AM 49.5845 -4.2878 281° West 464 534 32,500  Descending FlightAware UK
Fri 07:33:27 AM 49.5940 -4.3360 281° West 417 480 34,000  Climbing FlightAware ADS-B
Fri 07:33:42 AM 49.6067 -4.3892 281° West 464 534 32,500 -2,727 Descending FlightAware UK
Fri 07:34:00 AM 49.6199 -4.4384 292° West 464 534 32,500 3,000 Level FlightAware UK
Fri 07:34:12 AM 49.6270 -4.4630 292° West 420 483 34,000  Climbing FlightAware ADS-B
Fri 07:34:30 AM 49.6434 -4.5206 292° West 464 534 32,500  Descending FlightAware UK
Fri 07:34:52 AM 49.6600 -4.5770 292° West 420 483 34,000  Climbing FlightAware ADS-B
Fri 07:35:18 AM 49.6811 -4.6521 292° West 464 534 32,500  Descending FlightAware UK
Fri 07:35:32 AM 49.6900 -4.6830 292° West 420 483 34,000  Climbing FlightAware ADS-B
Fri 07:35:48 AM 49.7045 -4.7344 292° West 466 536 32,500 -2,647 Descending FlightAware UK
Fri 07:36:06 AM 49.7184 -4.7839 294° West 464 534 32,500 3,103 Level FlightAware UK
Fri 07:36:17 AM 49.7250 -4.8070 294° West 421 484 34,000  Climbing FlightAware ADS-B
Fri 07:36:36 AM 49.7415 -4.8666 294° West 464 534 32,500 -2,432 Descending FlightAware UK
Fri 07:36:54 AM 49.7554 -4.9162 293° West 464 534 32,500 4,286 Level FlightAware UK
Fri 07:36:57 AM 49.7560 -4.9200 293° West 421 484 34,000  Climbing FlightAware ADS-B
Fri 07:37:12 AM 49.7691 -4.9653 293° West 464 534 32,500 -2,727 Descending FlightAware UK
Fri 07:37:30 AM 49.7827 -5.0152 293° West 464 534 32,500 3,000 Level FlightAware UK
Fri 07:37:42 AM 49.7910 -5.0430 293° West 422 486 34,000  Climbing FlightAware ADS-B
Fri 07:38:00 AM 49.8056 -5.0982 293° West 464 534 32,500 -2,500 Descending FlightAware UK
Fri 07:38:18 AM 49.8194 -5.1482 293° West 464 534 32,500 4,091 Level FlightAware UK
Fri 07:38:22 AM 49.8200 -5.1480 293° West 422 486 34,000  Climbing FlightAware ADS-B
Fri 07:38:42 AM 49.8377 -5.2148 293° West 464 534 32,500 -2,368 Descending FlightAware UK
Fri 07:39:00 AM 49.8513 -5.2649 293° West 464 534 32,500 4,500 Level FlightAware UK
Fri 07:39:02 AM 49.8510 -5.2630 293° West 422 486 34,000  Climbing FlightAware ADS-B
Fri 07:39:18 AM 49.8650 -5.3150 293° West 464 534 32,500 -2,647 Descending FlightAware UK
Fri 07:39:36 AM 49.8788 -5.3650 293° West 464 534 32,500 3,103 Level FlightAware UK
Fri 07:39:47 AM 49.8860 -5.3900 293° West 423 487 34,000  Climbing FlightAware ADS-B
Fri 07:40:06 AM 49.9016 -5.4487 293° West 464 534 32,500 -2,432 Descending FlightAware UK
Fri 07:40:24 AM 49.9153 -5.4989 293° West 464 534 32,500 3,462 Level FlightAware UK
Fri 07:40:32 AM 49.9200 -5.5130 293° West 424 488 34,000  Climbing FlightAware ADS-B
Fri 07:40:48 AM 49.9335 -5.5659 293° West 464 534 32,500 -2,647 Descending FlightAware UK
Fri 07:41:06 AM 49.9470 -5.6163 293° West 466 536 32,500 3,750 Level FlightAware UK
Fri 07:41:12 AM 49.9500 -5.6250 293° West 424 488 34,000  Climbing FlightAware ADS-B
Fri 07:41:30 AM 49.9651 -5.6835 293° West 466 536 32,500 -2,500 Descending FlightAware UK
Fri 07:41:48 AM 49.9787 -5.7340 293° West 466 536 32,500 3,333 Level FlightAware UK
Fri 07:41:57 AM 49.9850 -5.7550 293° West 424 488 34,000  Climbing FlightAware ADS-B
Fri 07:42:12 AM 49.9967 -5.8014 293° West 468 539 32,500 -2,727 Descending FlightAware UK
Fri 07:42:30 AM 50.0104 -5.8519 293° West 468 539 32,500 3,600 Level FlightAware UK
Fri 07:42:37 AM 50.0150 -5.8660 293° West 424 488 34,000  Climbing FlightAware ADS-B
Fri 07:42:54 AM 50.0283 -5.9186 293° West 468 539 32,500 -2,571 Descending FlightAware UK
Fri 07:43:12 AM 50.0417 -5.9692 292° West 468 539 32,500 3,913 Level FlightAware UK
Fri 07:43:17 AM 50.0450 -5.9790 292° West 422 486 34,000  Climbing FlightAware ADS-B
Fri 07:43:36 AM 50.0595 -6.0365 292° West 466 536 32,500 -2,432 Descending FlightAware UK
Fri 07:43:54 AM 50.0729 -6.0869 293° West 464 534 32,500 4,286 Level FlightAware UK
Fri 07:43:57 AM 50.0740 -6.0910 293° West 421 484 34,000  Climbing FlightAware ADS-B
Fri 07:44:18 AM 50.0907 -6.1541 293° West 464 534 32,500 -2,308 Descending FlightAware UK
Fri 07:44:36 AM 50.1038 -6.2046 292° West 464 534 32,500 3,750 Level FlightAware UK
Fri 07:44:42 AM 50.1070 -6.2150 292° West 422 486 34,000  Climbing FlightAware ADS-B
Fri 07:45:00 AM 50.1214 -6.2718 292° West 464 534 32,500 -2,500 Descending FlightAware UK
Fri 07:45:18 AM 50.1348 -6.3222 293° West 464 534 32,500 4,091 Level FlightAware UK
Fri 07:45:22 AM 50.1370 -6.3290 293° West 422 486 34,000  Climbing FlightAware ADS-B
Fri 07:45:42 AM 50.1526 -6.3896 293° West 464 534 32,500 -2,368 Descending FlightAware UK
Fri 07:46:00 AM 50.1658 -6.4402 292° West 464 534 32,500 3,600 Level FlightAware UK
Fri 07:46:07 AM 50.1690 -6.4500 292° West 423 487 34,000  Climbing FlightAware ADS-B
Fri 07:46:24 AM 50.1833 -6.5078 292° West 464 534 32,500 -2,571 Descending FlightAware UK
Fri 07:46:42 AM 50.1964 -6.5586 292° West 464 534 32,500 3,913 Level FlightAware UK
Fri 07:46:47 AM 50.1980 -6.5620 292° West 422 486 34,000  Climbing FlightAware ADS-B
Fri 07:47:06 AM 50.2139 -6.6264 292° West 464 534 32,500 -2,432 Descending FlightAware UK
Fri 07:47:24 AM 50.2270 -6.6771 292° West 464 534 32,500 3,462 Level FlightAware UK
Fri 07:47:32 AM 50.2320 -6.6930 292° West 422 486 34,000  Climbing FlightAware ADS-B
Fri 07:47:48 AM 50.2445 -6.7447 292° West 464 534 32,500 -2,647 Descending FlightAware UK
Fri 07:48:06 AM 50.2576 -6.7955 292° West 464 534 32,500 3,750 Level FlightAware UK
Fri 07:48:12 AM 50.2610 -6.8060 292° West 422 486 34,000  Climbing FlightAware ADS-B
Fri 07:48:30 AM 50.2751 -6.8632 292° West 464 534 32,500 -2,500 Descending FlightAware UK
Fri 07:48:48 AM 50.2882 -6.9141 292° West 464 534 32,500 4,091 Level FlightAware UK
Fri 07:48:52 AM 50.2890 -6.9180 292° West 422 486 34,000  Climbing FlightAware ADS-B
Fri 07:49:12 AM 50.3054 -6.9821 292° West 464 534 32,500 -2,368 Descending FlightAware UK
Fri 07:49:30 AM 50.3183 -7.0332 292° West 462 532 32,500 4,500 Level FlightAware UK
Fri 07:49:32 AM 50.3190 -7.0340 292° West 424 488 34,000  Climbing FlightAware ADS-B
Fri 07:49:48 AM 50.3311 -7.0838 292° West 464 534 32,500 -2,647 Descending FlightAware UK
Fri 07:50:06 AM 50.3440 -7.1351 291° West 464 534 32,500 3,103 Level FlightAware UK
Fri 07:50:17 AM 50.3510 -7.1620 291° West 424 488 34,000  Climbing FlightAware ADS-B
Fri 07:50:36 AM 50.3656 -7.2207 291° West 466 536 32,500 -2,432 Descending FlightAware UK
Fri 07:50:54 AM 50.3786 -7.2720 292° West 466 536 32,500 3,462 Level FlightAware UK
Fri 07:51:02 AM 50.3830 -7.2880 292° West 425 489 34,000  Climbing FlightAware ADS-B
Fri 07:51:18 AM 50.3960 -7.3405 292° West 468 539 32,500 -2,647 Descending FlightAware UK
Fri 07:51:36 AM 50.4088 -7.3921 291° West 468 539 32,500 3,750 Level FlightAware UK
Fri 07:51:42 AM 50.4110 -7.4020 291° West 425 489 34,000  Climbing FlightAware ADS-B
Fri 07:52:00 AM 50.4259 -7.4608 291° West 466 536 32,500 -2,500 Descending FlightAware UK
Fri 07:52:18 AM 50.4386 -7.5124 291° West 468 539 32,500 3,333 Level FlightAware UK
Fri 07:52:27 AM 50.4440 -7.5320 291° West 425 489 34,000  Climbing FlightAware ADS-B
Fri 07:52:42 AM 50.4556 -7.5812 291° West 470 541 32,500 -2,727 Descending FlightAware UK
Fri 07:53:00 AM 50.4684 -7.6328 291° West 470 541 32,500 3,600 Level FlightAware UK
Fri 07:53:07 AM 50.4730 -7.6500 291° West 424 488 34,000  Climbing FlightAware ADS-B
Fri 07:53:24 AM 50.4853 -7.7016 291° West 470 541 32,500 -2,571 Descending FlightAware UK
Fri 07:53:42 AM 50.4981 -7.7531 291° West 468 539 32,500 5,000 Level FlightAware UK
Fri 07:53:42 AM 50.4970 -7.7480 291° West 422 486 34,000  Climbing FlightAware ADS-B
Fri 07:54:00 AM 50.5107 -7.8045 291° West 468 539 32,500 -2,500 Descending FlightAware UK
Fri 07:54:18 AM 50.5234 -7.8559 291° West 466 536 32,500 2,813 Level FlightAware UK
Fri 07:54:32 AM 50.5320 -7.8900 291° West 421 484 34,000  Climbing FlightAware ADS-B
Fri 07:54:48 AM 50.5442 -7.9416 291° West 468 539 32,500 -2,647 Descending FlightAware UK
Fri 07:55:06 AM 50.5567 -7.9930 291° West 468 539 32,500 3,750 Level FlightAware UK
Fri 07:55:12 AM 50.5600 -8.0030 291° West 421 484 34,000  Climbing FlightAware ADS-B
Fri 07:55:30 AM 50.5733 -8.0615 291° West 470 541 32,500 -2,500 Descending FlightAware UK
Fri 07:55:48 AM 50.5857 -8.1128 291° West 470 541 32,500 4,091 Level FlightAware UK
Fri 07:55:52 AM 50.5870 -8.1160 291° West 420 483 34,000  Climbing FlightAware ADS-B
Fri 07:56:12 AM 50.6021 -8.1813 291° West 470 541 32,500 -2,368 Descending FlightAware UK
Fri 07:56:30 AM 50.6143 -8.2320 291° West 468 539 32,500 3,600 Level FlightAware UK
Fri 07:56:37 AM 50.6190 -8.2470 291° West 420 483 34,000  Climbing FlightAware ADS-B
Fri 07:56:54 AM 50.6308 -8.3003 291° West 468 539 32,500 -2,571 Descending FlightAware UK
Fri 07:57:12 AM 50.6432 -8.3515 291° West 466 536 32,500 5,000 Level FlightAware UK
Fri 07:57:12 AM 50.6410 -8.3400 291° West 419 482 34,000  Climbing FlightAware ADS-B
Fri 07:57:30 AM 50.6556 -8.4028 291° West 466 536 32,500 -2,500 Descending FlightAware UK
Fri 07:57:48 AM 50.6678 -8.4542 291° West 462 532 32,500 2,813 Level FlightAware UK
Fri 07:58:02 AM 50.6750 -8.4830 291° West 420 483 34,000  Climbing FlightAware ADS-B
Fri 07:58:18 AM 50.6881 -8.5401 291° West 466 536 32,500 -2,647 Descending FlightAware UK
Fri 07:58:36 AM 50.7005 -8.5917 291° West 468 539 32,500 3,750 Level FlightAware UK
Fri 07:58:42 AM 50.7030 -8.6030 291° West 423 487 34,000  Climbing FlightAware ADS-B
Fri 07:59:00 AM 50.7168 -8.6608 291° West 468 539 32,500 -2,500 Descending FlightAware UK
Fri 07:59:18 AM 50.7292 -8.7127 291° West 470 541 32,500 3,333 Level FlightAware UK
Fri 07:59:27 AM 50.7320 -8.7230 291° West 423 487 34,000  Climbing FlightAware ADS-B
Fri 07:59:42 AM 50.7454 -8.7822 291° West 466 536 32,500 -2,727 Descending FlightAware UK
Fri 08:00:00 AM 50.7577 -8.8343 290° West 466 536 32,500 3,600 Level FlightAware UK
Fri 08:00:07 AM 50.7610 -8.8480 290° West 424 488 34,000  Climbing FlightAware ADS-B
Fri 08:00:24 AM 50.7739 -8.9040 290° West 468 539 32,500 -2,571 Descending FlightAware UK
Fri 08:00:42 AM 50.7860 -8.9563 290° West 472 543 32,500  Level FlightAware UK
Fri 08:01:00 AM 50.7982 -9.0088 290° West 472 543 32,500 1,286 Level FlightAware UK
Fri 08:01:52 AM 50.8310 -9.1510 290° West 427 491 34,000 804 Climbing FlightAware ADS-B
Fri 08:02:52 AM 50.8730 -9.3320 290° West 427 491 34,000  Level FlightAware ADS-B
Fri 08:03:27 AM 50.8970 -9.4370 290° West 427 491 34,000  Level FlightAware ADS-B
Fri 08:04:17 AM 50.9300 -9.5840 290° West 427 491 34,000  Level FlightAware ADS-B
Fri 08:05:02 AM 50.9600 -9.7150 290° West 428 493 34,000  Level FlightAware ADS-B
Fri 08:05:42 AM 50.9840 -9.8230 289° West 430 495 34,000  Level FlightAware ADS-B
Fri 08:06:22 AM 51.0120 -9.9490 289° West 431 496 34,000  Level FlightAware ADS-B
Fri 08:06:57 AM 51.0330 -10.0430 290° West 428 493 34,000  Level FlightAware ADS-B
Fri 08:07:47 AM 51.0680 -10.2050 289° West 430 495 34,000  Level FlightAware ADS-B
Fri 08:08:27 AM 51.0940 -10.3240 289° West 430 495 34,000  Level FlightAware ADS-B
Fri 08:09:07 AM 51.1180 -10.4330 289° West 431 496 34,000  Level FlightAware ADS-B
Fri 08:09:47 AM 51.1440 -10.5550 289° West 430 495 34,000  Level FlightAware ADS-B
Fri 08:10:57 AM 51.1860 -10.7550 289° West 430 495 34,000  Level FlightAware ADS-B
Fri 08:11:47 AM 51.2100 -10.8840 287° West 430 495 34,000  Level FlightAware ADS-B
Fri 08:12:27 AM 51.2300 -10.9870 287° West 430 495 34,000  Level FlightAware ADS-B
Fri 08:13:07 AM 51.2500 -11.0910 287° West 430 495 34,000  Level FlightAware ADS-B
Fri 08:13:47 AM 51.2700 -11.1940 287° West 430 495 34,000  Level FlightAware ADS-B
Fri 08:14:27 AM 51.2890 -11.2980 286° West 430 495 34,000  Level FlightAware ADS-B
Fri 08:15:07 AM 51.3090 -11.4010 287° West 430 495 34,000  Level FlightAware ADS-B
Fri 08:15:57 AM 51.3340 -11.5300 287° West 430 495 34,000  Level FlightAware ADS-B
Fri 08:16:37 AM 51.3540 -11.6340 287° West 430 495 34,000  Level FlightAware ADS-B
Fri 08:17:17 AM 51.3730 -11.7380 286° West 430 495 34,000  Level FlightAware ADS-B
Fri 08:17:57 AM 51.3930 -11.8410 287° West 430 495 34,000  Level FlightAware ADS-B
Fri 08:18:37 AM 51.4130 -11.9450 287° West 430 495 34,000  Level FlightAware ADS-B
Fri 08:19:27 AM 51.4380 -12.0750 287° West 430 495 34,000  Level FlightAware ADS-B
Fri 08:20:07 AM 51.4570 -12.1780 287° West 430 495 34,000 23 Level FlightAware ADS-B
Fri 08:22:00 AM 51.5190 -12.5162 287° West  Level Estimated
Fri 08:23:00 AM 51.5514 -12.6961 286° West  Level Estimated
Fri 08:24:00 AM 51.5837 -12.8763 286° West  Level Estimated
Fri 08:25:00 AM 51.6156 -13.0567 286° West  Level Estimated
Fri 08:26:00 AM 51.6473 -13.2374 286° West  Level Estimated
Fri 08:27:00 AM 51.6787 -13.4184 286° West  Level Estimated
Fri 08:28:00 AM 51.7098 -13.5996 286° West  Level Estimated
Fri 08:29:00 AM 51.7406 -13.7810 285° West  Level Estimated
Fri 08:30:00 AM 51.7712 -13.9627 285° West  Level Estimated
Fri 08:31:00 AM 51.8015 -14.1447 285° West  Level Estimated
Fri 08:32:00 AM 51.8315 -14.3268 285° West  Level Estimated
Fri 08:33:00 AM 51.8612 -14.5093 285° West  Level Estimated
Fri 08:34:00 AM 51.8906 -14.6919 285° West  Level Estimated
Fri 08:35:00 AM 51.9198 -14.8748 285° West  Level Estimated
Fri 08:36:00 AM 51.9486 -15.0580 284° West  Level Estimated
Fri 08:37:00 AM 51.9772 -15.2413 284° West  Level Estimated
Fri 08:38:00 AM 52.0055 -15.4249 284° West  Level Estimated
Fri 08:39:00 AM 52.0335 -15.6088 284° West  Level Estimated
Fri 08:40:00 AM 52.0612 -15.7928 284° West  Level Estimated
Fri 08:41:00 AM 52.0886 -15.9771 284° West  Level Estimated
Fri 08:42:00 AM 52.1158 -16.1617 284° West  Level Estimated
Fri 08:43:00 AM 52.1427 -16.3464 283° West  Level Estimated
Fri 08:44:00 AM 52.1692 -16.5314 283° West  Level Estimated
Fri 08:45:00 AM 52.1955 -16.7165 283° West  Level Estimated
Fri 08:46:00 AM 52.2215 -16.9019 283° West  Level Estimated
Fri 08:47:00 AM 52.2472 -17.0876 283° West  Level Estimated
Fri 08:48:00 AM 52.2726 -17.2734 283° West  Level Estimated
Fri 08:49:00 AM 52.2977 -17.4594 283° West  Level Estimated
Fri 08:50:00 AM 52.3225 -17.6457 282° West  Level Estimated
Fri 08:51:00 AM 52.3474 -17.8347 282° West  Level Estimated
Fri 08:52:00 AM 52.3720 -18.0243 282° West  Level Estimated
Fri 08:53:00 AM 52.3963 -18.2141 282° West  Level Estimated
Fri 08:54:00 AM 52.4203 -18.4041 282° West  Level Estimated
Fri 08:55:00 AM 52.4440 -18.5943 282° West  Level Estimated
Fri 08:56:00 AM 52.4674 -18.7847 281° West  Level Estimated
Fri 08:57:00 AM 52.4905 -18.9753 281° West  Level Estimated
Fri 08:58:00 AM 52.5132 -19.1661 281° West  Level Estimated
Fri 08:59:00 AM 52.5357 -19.3571 281° West  Level Estimated
Fri 09:00:00 AM 52.5579 -19.5483 281° West  Level Estimated
Fri 09:01:00 AM 52.5797 -19.7397 281° West  Level Estimated
Fri 09:02:00 AM 52.6013 -19.9313 281° West  Level Estimated
Fri 09:03:00 AM 52.6225 -20.1230 280° West  Level Estimated
Fri 09:03:00 AM 51.0000 -20.0000 257° West 440 506 35,000  Level ETMS Enhanced Traffic Management System
Fri 09:04:00 AM 52.6434 -20.3150 280° West  Level Estimated
Fri 09:05:00 AM 52.6640 -20.5071 280° West  Level Estimated
Fri 09:06:00 AM 52.6843 -20.6994 280° West  Level Estimated
Fri 09:07:00 AM 52.7043 -20.8919 280° West  Level Estimated
Fri 09:08:00 AM 52.7240 -21.0846 280° West  Level Estimated
Fri 09:09:00 AM 50.7326 -21.6916 255° West 440 506 35,000  Level FlightAware Transoceanic
Fri 09:10:00 AM 50.7014 -21.8783 255° West 440 506 35,000  Level FlightAware Transoceanic
Fri 09:11:00 AM 50.6698 -22.0648 255° West 440 506 35,000  Level FlightAware Transoceanic
Fri 09:12:00 AM 50.6380 -22.2510 255° West 440 506 35,000  Level FlightAware Transoceanic
Fri 09:13:00 AM 50.6059 -22.4370 255° West 440 506 35,000  Level FlightAware Transoceanic
Fri 09:14:00 AM 50.5735 -22.6227 255° West 440 506 35,000  Level FlightAware Transoceanic
Fri 09:15:00 AM 50.5408 -22.8082 254° West 440 506 35,000  Level FlightAware Transoceanic
Fri 09:16:00 AM 50.5078 -22.9934 254° West 440 506 35,000  Level FlightAware Transoceanic
Fri 09:17:00 AM 50.4745 -23.1784 254° West 440 506 35,000  Level FlightAware Transoceanic
Fri 09:18:00 AM 50.4409 -23.3631 254° West 440 506 35,000  Level FlightAware Transoceanic
Fri 09:19:00 AM 50.4071 -23.5475 254° West 440 506 35,000  Level FlightAware Transoceanic
Fri 09:20:00 AM 50.3729 -23.7316 254° West 440 506 35,000  Level FlightAware Transoceanic
Fri 09:21:00 AM 50.3385 -23.9155 254° West 440 506 35,000  Level FlightAware Transoceanic
Fri 09:22:00 AM 50.3037 -24.0992 253° West 440 506 35,000  Level FlightAware Transoceanic
Fri 09:23:00 AM 50.2687 -24.2825 253° West 440 506 35,000  Level FlightAware Transoceanic
Fri 09:24:00 AM 50.2334 -24.4656 253° West 440 506 35,000  Level FlightAware Transoceanic
Fri 09:25:00 AM 50.1978 -24.6484 253° West 440 506 35,000  Level FlightAware Transoceanic
Fri 09:26:00 AM 50.1619 -24.8310 253° West 440 506 35,000  Level FlightAware Transoceanic
Fri 09:27:00 AM 50.1257 -25.0132 253° West 440 506 35,000  Level FlightAware Transoceanic
Fri 09:28:00 AM 50.0892 -25.1952 253° West 440 506 35,000  Level FlightAware Transoceanic
Fri 09:29:00 AM 50.0525 -25.3769 252° West 440 506 35,000  Level FlightAware Transoceanic
Fri 09:30:00 AM 50.0154 -25.5584 252° West 440 506 35,000  Level FlightAware Transoceanic
Fri 09:31:00 AM 49.9781 -25.7395 252° West 440 506 35,000  Level FlightAware Transoceanic
Fri 09:32:00 AM 49.9405 -25.9204 252° West 440 506 35,000  Level FlightAware Transoceanic
Fri 09:33:00 AM 49.9026 -26.1010 252° West 440 506 35,000  Level FlightAware Transoceanic
Fri 09:34:00 AM 49.8645 -26.2813 252° West 440 506 35,000  Level FlightAware Transoceanic
Fri 09:35:00 AM 49.8260 -26.4613 252° West 440 506 35,000  Level FlightAware Transoceanic
Fri 09:36:00 AM 49.7873 -26.6411 251° West 440 506 35,000  Level FlightAware Transoceanic
Fri 09:37:00 AM 49.7483 -26.8205 251° West 440 506 35,000  Level FlightAware Transoceanic
Fri 09:38:00 AM 49.7091 -26.9997 251° West 440 506 35,000  Level FlightAware Transoceanic
Fri 09:39:00 AM 49.6695 -27.1785 251° West 440 506 35,000  Level FlightAware Transoceanic
Fri 09:40:00 AM 49.6297 -27.3571 251° West 440 506 35,000  Level FlightAware Transoceanic
Fri 09:41:00 AM 49.5896 -27.5354 251° West 440 506 35,000  Level FlightAware Transoceanic
Fri 09:42:00 AM 49.5493 -27.7134 251° West 440 506 35,000  Level FlightAware Transoceanic
Fri 09:43:00 AM 49.5086 -27.8911 251° West 440 506 35,000  Level FlightAware Transoceanic
Fri 09:44:00 AM 49.4677 -28.0685 250° West 440 506 35,000  Level FlightAware Transoceanic
Fri 09:45:00 AM 49.4265 -28.2456 250° West 440 506 35,000  Level FlightAware Transoceanic
Fri 09:46:00 AM 49.3851 -28.4224 250° West 440 506 35,000  Level FlightAware Transoceanic
Fri 09:47:00 AM 49.3433 -28.5989 250° West 440 506 35,000  Level FlightAware Transoceanic
Fri 09:48:00 AM 49.3014 -28.7751 250° West 440 506 35,000  Level FlightAware Transoceanic
Fri 09:49:00 AM 49.2591 -28.9510 250° West 440 506 35,000  Level FlightAware Transoceanic
Fri 09:50:00 AM 49.2166 -29.1266 250° West 440 506 35,000  Level FlightAware Transoceanic
Fri 09:51:00 AM 49.1738 -29.3019 249° West 440 506 35,000  Level FlightAware Transoceanic
Fri 09:52:00 AM 49.1307 -29.4769 249° West 440 506 35,000  Level FlightAware Transoceanic
Fri 09:53:00 AM 49.0874 -29.6515 249° West 440 506 35,000  Level FlightAware Transoceanic
Fri 09:54:00 AM 49.0438 -29.8259 249° West 440 506 35,000  Level FlightAware Transoceanic
Fri 09:55:00 AM 49.0014 -29.9944 249° West  Level FlightAware Approximate
Fri 09:56:00 AM 48.9588 -30.1626 249° West  Level FlightAware Approximate
Fri 09:56:00 AM 49.0000 -30.0000 265° West 438 504 35,000  Level ETMS Enhanced Traffic Management System
Fri 09:56:55 AM 49.0000 -30.0000 265° West 438 504 35,000  Level ETMS Enhanced Traffic Management System
Fri 09:57:00 AM 48.9906 -30.1678 265° West  Level FlightAware Approximate
Fri 09:58:00 AM 48.9803 -30.3475 265° West  Level FlightAware Approximate
Fri 09:59:00 AM 48.9697 -30.5271 265° West  Level FlightAware Approximate
Fri 10:00:00 AM 48.9588 -30.7066 265° West  Level FlightAware Approximate
Fri 10:01:00 AM 48.9476 -30.8861 265° West  Level FlightAware Approximate
Fri 10:02:00 AM 48.9334 -31.1081 264° West 438 504 35,000  Level FlightAware Transoceanic
Fri 10:03:00 AM 48.9213 -31.2925 264° West 438 504 35,000  Level FlightAware Transoceanic
Fri 10:04:00 AM 48.9089 -31.4768 264° West 438 504 35,000  Level FlightAware Transoceanic
Fri 10:05:00 AM 48.8961 -31.6610 264° West 438 504 35,000  Level FlightAware Transoceanic
Fri 10:06:00 AM 48.8831 -31.8451 264° West 438 504 35,000  Level FlightAware Transoceanic
Fri 10:07:00 AM 48.8699 -32.0291 264° West 438 504 35,000  Level FlightAware Transoceanic
Fri 10:08:00 AM 48.8563 -32.2130 264° West 438 504 35,000  Level FlightAware Transoceanic
Fri 10:09:00 AM 48.8424 -32.3968 263° West 438 504 35,000  Level FlightAware Transoceanic
Fri 10:10:00 AM 48.8282 -32.5805 263° West 438 504 35,000  Level FlightAware Transoceanic
Fri 10:11:00 AM 48.8137 -32.7641 263° West 438 504 35,000  Level FlightAware Transoceanic
Fri 10:12:00 AM 48.7990 -32.9476 263° West 438 504 35,000  Level FlightAware Transoceanic
Fri 10:13:00 AM 48.7839 -33.1310 263° West 438 504 35,000  Level FlightAware Transoceanic
Fri 10:14:00 AM 48.7686 -33.3143 263° West 438 504 35,000  Level FlightAware Transoceanic
Fri 10:15:00 AM 48.7529 -33.4974 263° West 438 504 35,000  Level FlightAware Transoceanic
Fri 10:16:00 AM 48.7370 -33.6805 262° West 438 504 35,000  Level FlightAware Transoceanic
Fri 10:17:00 AM 48.7208 -33.8634 262° West 438 504 35,000  Level FlightAware Transoceanic
Fri 10:18:00 AM 48.7043 -34.0462 262° West 438 504 35,000  Level FlightAware Transoceanic
Fri 10:19:00 AM 48.6875 -34.2289 262° West 438 504 35,000  Level FlightAware Transoceanic
Fri 10:20:00 AM 48.6704 -34.4115 262° West 438 504 35,000  Level FlightAware Transoceanic
Fri 10:21:00 AM 48.6530 -34.5939 262° West 438 504 35,000  Level FlightAware Transoceanic
Fri 10:22:00 AM 48.6354 -34.7762 262° West 438 504 35,000  Level FlightAware Transoceanic
Fri 10:23:00 AM 48.6175 -34.9584 261° West 438 504 35,000  Level FlightAware Transoceanic
Fri 10:24:00 AM 48.5992 -35.1405 261° West 438 504 35,000  Level FlightAware Transoceanic
Fri 10:25:00 AM 48.5807 -35.3224 261° West 438 504 35,000  Level FlightAware Transoceanic
Fri 10:26:00 AM 48.5619 -35.5042 261° West 438 504 35,000  Level FlightAware Transoceanic
Fri 10:27:00 AM 48.5428 -35.6858 261° West 438 504 35,000  Level FlightAware Transoceanic
Fri 10:28:00 AM 48.5234 -35.8673 261° West 438 504 35,000  Level FlightAware Transoceanic
Fri 10:29:00 AM 48.5038 -36.0487 261° West 438 504 35,000  Level FlightAware Transoceanic
Fri 10:30:00 AM 48.4838 -36.2299 261° West 438 504 35,000  Level FlightAware Transoceanic
Fri 10:31:00 AM 48.4636 -36.4110 260° West 438 504 35,000  Level FlightAware Transoceanic
Fri 10:32:00 AM 48.4431 -36.5920 260° West 438 504 35,000  Level FlightAware Transoceanic
Fri 10:33:00 AM 48.4223 -36.7728 260° West 438 504 35,000  Level FlightAware Transoceanic
Fri 10:34:00 AM 48.4012 -36.9534 260° West 438 504 35,000  Level FlightAware Transoceanic
Fri 10:35:00 AM 48.3798 -37.1339 260° West 438 504 35,000  Level FlightAware Transoceanic
Fri 10:36:00 AM 48.3582 -37.3143 260° West 438 504 35,000  Level FlightAware Transoceanic
Fri 10:37:00 AM 48.3363 -37.4945 260° West 438 504 35,000  Level FlightAware Transoceanic
Fri 10:38:00 AM 48.3141 -37.6745 259° West 438 504 35,000  Level FlightAware Transoceanic
Fri 10:39:00 AM 48.2916 -37.8544 259° West 438 504 35,000  Level FlightAware Transoceanic
Fri 10:40:00 AM 48.2688 -38.0341 259° West 438 504 35,000  Level FlightAware Transoceanic
Fri 10:41:00 AM 48.2458 -38.2136 259° West 438 504 35,000  Level FlightAware Transoceanic
Fri 10:42:00 AM 48.2224 -38.3930 259° West 438 504 35,000  Level FlightAware Transoceanic
Fri 10:43:00 AM 48.1988 -38.5723 259° West 438 504 35,000  Level FlightAware Transoceanic
Fri 10:44:00 AM 48.1749 -38.7513 259° West 438 504 35,000  Level FlightAware Transoceanic
Fri 10:45:00 AM 48.1508 -38.9302 258° West 438 504 35,000  Level FlightAware Transoceanic
Fri 10:46:00 AM 48.1263 -39.1090 258° West 438 504 35,000  Level FlightAware Transoceanic
Fri 10:47:00 AM 48.1016 -39.2875 258° West 438 504 35,000  Level FlightAware Transoceanic
Fri 10:48:00 AM 48.0766 -39.4659 258° West 438 504 35,000  Level FlightAware Transoceanic
Fri 10:49:00 AM 48.0514 -39.6441 258° West 438 504 35,000  Level FlightAware Transoceanic
Fri 10:50:00 AM 48.0258 -39.8221 258° West 438 504 35,000  Level FlightAware Transoceanic
Fri 10:51:00 AM 48.0007 -39.9950 258° West  Level FlightAware Approximate
Fri 10:52:00 AM 47.9754 -40.1678 258° West  Level FlightAware Approximate
Fri 10:52:00 AM 48.0000 -40.0000 257° West 433 498 35,000  Level ETMS Enhanced Traffic Management System
Fri 10:52:49 AM 48.0000 -40.0000 257° West 433 498 35,000  Level ETMS Enhanced Traffic Management System
Fri 10:53:00 AM 47.9745 -40.1623 257° West  Level FlightAware Approximate
Fri 10:54:00 AM 47.9472 -40.3343 257° West  Level FlightAware Approximate
Fri 10:55:00 AM 47.9196 -40.5061 257° West  Level FlightAware Approximate
Fri 10:56:00 AM 47.8918 -40.6777 256° West  Level FlightAware Approximate
Fri 10:57:00 AM 47.8638 -40.8492 256° West  Level FlightAware Approximate
Fri 10:58:00 AM 47.8091 -41.2241 256° West 433 498 35,000  Level FlightAware Transoceanic
Fri 10:59:00 AM 47.7808 -41.3983 256° West 433 498 35,000  Level FlightAware Transoceanic
Fri 11:00:00 AM 47.7522 -41.5722 256° West 433 498 35,000  Level FlightAware Transoceanic
Fri 11:01:00 AM 47.7233 -41.7459 256° West 433 498 35,000  Level FlightAware Transoceanic
Fri 11:02:00 AM 47.6942 -41.9195 256° West 433 498 35,000  Level FlightAware Transoceanic
Fri 11:03:00 AM 47.6648 -42.0929 256° West 433 498 35,000  Level FlightAware Transoceanic
Fri 11:04:00 AM 47.6352 -42.2660 256° West 433 498 35,000  Level FlightAware Transoceanic
Fri 11:05:00 AM 47.6053 -42.4390 256° West 433 498 35,000  Level FlightAware Transoceanic
Fri 11:06:00 AM 47.5751 -42.6118 255° West 433 498 35,000  Level FlightAware Transoceanic
Fri 11:07:00 AM 47.5447 -42.7843 255° West 433 498 35,000  Level FlightAware Transoceanic
Fri 11:08:00 AM 47.5140 -42.9567 255° West 433 498 35,000  Level FlightAware Transoceanic
Fri 11:09:00 AM 47.4830 -43.1289 255° West 433 498 35,000  Level FlightAware Transoceanic
Fri 11:10:00 AM 47.4519 -43.3008 255° West 433 498 35,000  Level FlightAware Transoceanic
Fri 11:11:00 AM 47.4204 -43.4726 255° West 433 498 35,000  Level FlightAware Transoceanic
Fri 11:12:00 AM 47.3887 -43.6441 255° West 433 498 35,000  Level FlightAware Transoceanic
Fri 11:13:00 AM 47.3567 -43.8155 255° West 433 498 35,000  Level FlightAware Transoceanic
Fri 11:14:00 AM 47.3245 -43.9866 254° West 433 498 35,000  Level FlightAware Transoceanic
Fri 11:15:00 AM 47.2920 -44.1575 254° West 433 498 35,000  Level FlightAware Transoceanic
Fri 11:16:00 AM 47.2593 -44.3283 254° West 433 498 35,000  Level FlightAware Transoceanic
Fri 11:17:00 AM 47.2263 -44.4987 254° West 433 498 35,000  Level FlightAware Transoceanic
Fri 11:18:00 AM 47.1931 -44.6690 254° West 433 498 35,000  Level FlightAware Transoceanic
Fri 11:19:00 AM 47.1596 -44.8391 254° West 433 498 35,000  Level FlightAware Transoceanic
Fri 11:20:00 AM 47.1259 -45.0090 254° West 433 498 35,000  Level FlightAware Transoceanic
Fri 11:21:00 AM 47.0919 -45.1786 254° West 433 498 35,000  Level FlightAware Transoceanic
Fri 11:22:00 AM 47.0576 -45.3480 253° West 433 498 35,000  Level FlightAware Transoceanic
Fri 11:23:00 AM 47.0232 -45.5173 253° West 433 498 35,000  Level FlightAware Transoceanic
Fri 11:24:00 AM 46.9884 -45.6862 253° West 433 498 35,000  Level FlightAware Transoceanic
Fri 11:25:00 AM 46.9534 -45.8550 253° West 433 498 35,000  Level FlightAware Transoceanic
Fri 11:26:00 AM 46.9182 -46.0236 253° West 433 498 35,000  Level FlightAware Transoceanic
Fri 11:27:00 AM 46.8827 -46.1919 253° West 433 498 35,000  Level FlightAware Transoceanic
Fri 11:28:00 AM 46.8470 -46.3600 253° West 433 498 35,000  Level FlightAware Transoceanic
Fri 11:29:00 AM 46.8110 -46.5279 253° West 433 498 35,000  Level FlightAware Transoceanic
Fri 11:30:00 AM 46.7748 -46.6955 252° West 433 498 35,000  Level FlightAware Transoceanic
Fri 11:31:00 AM 46.7383 -46.8630 252° West 433 498 35,000  Level FlightAware Transoceanic
Fri 11:32:00 AM 46.7016 -47.0302 252° West 433 498 35,000  Level FlightAware Transoceanic
Fri 11:33:00 AM 46.6647 -47.1971 252° West 433 498 35,000  Level FlightAware Transoceanic
Fri 11:34:00 AM 46.6275 -47.3639 252° West 433 498 35,000  Level FlightAware Transoceanic
Fri 11:35:00 AM 46.5901 -47.5304 252° West 433 498 35,000  Level FlightAware Transoceanic
Fri 11:36:00 AM 46.5524 -47.6967 252° West 433 498 35,000  Level FlightAware Transoceanic
Fri 11:37:00 AM 46.5145 -47.8627 252° West 433 498 35,000  Level FlightAware Transoceanic
Fri 11:38:00 AM 46.4763 -48.0286 251° West 433 498 35,000  Level FlightAware Transoceanic
Fri 11:39:00 AM 46.4379 -48.1941 251° West 433 498 35,000  Level FlightAware Transoceanic
Fri 11:40:00 AM 46.3993 -48.3595 251° West 433 498 35,000  Level FlightAware Transoceanic
Fri 11:41:00 AM 46.3604 -48.5246 251° West 433 498 35,000  Level FlightAware Transoceanic
Fri 11:42:00 AM 46.3213 -48.6895 251° West 433 498 35,000  Level FlightAware Transoceanic
Fri 11:43:00 AM 46.2820 -48.8541 251° West 433 498 35,000  Level FlightAware Transoceanic
Fri 11:44:00 AM 46.2424 -49.0186 251° West 433 498 35,000  Level FlightAware Transoceanic
Fri 11:45:00 AM 46.2026 -49.1827 251° West 433 498 35,000  Level FlightAware Transoceanic
Fri 11:46:00 AM 46.1625 -49.3467 251° West 433 498 35,000  Level FlightAware Transoceanic
Fri 11:47:00 AM 46.1222 -49.5104 250° West 433 498 35,000  Level FlightAware Transoceanic
Fri 11:48:00 AM 46.0817 -49.6738 250° West 433 498 35,000  Level FlightAware Transoceanic
Fri 11:49:00 AM 46.0410 -49.8370 250° West 433 498 35,000  Level FlightAware Transoceanic
Fri 11:50:00 AM 45.9967 -49.9951 248° West  Level FlightAware Approximate
Fri 11:51:00 AM 46.0000 -49.9933 270° West  Level FlightAware Approximate
Fri 11:52:00 AM 45.9741 -50.1593 257° West  Level FlightAware Approximate
Fri 11:52:40 AM 45.9333 -50.2167 257° West 430 495 35,000  Level Gander Center
Fri 11:53:00 AM 45.9469 -50.3250 257° West  Level FlightAware Approximate
Fri 11:53:40 AM 45.9167 -50.3667 261° West 430 495 35,000  Level Gander Center
Fri 11:54:00 AM 45.9197 -50.4889 257° West  Level FlightAware Approximate
Fri 11:55:00 AM 45.8923 -50.6529 257° West  Level FlightAware Approximate
Fri 11:56:00 AM 45.8646 -50.8167 256° West  Level FlightAware Approximate
Fri 11:57:00 AM 45.8367 -50.9803 256° West  Level FlightAware Approximate
Fri 11:58:00 AM 45.8102 -51.1441 257° West  Level FlightAware Approximate
Fri 11:59:52 AM 46.0320 -51.4840 261° West 432 497 35,000  Level FlightAware ADS-B
Fri 12:00:32 PM 46.0390 -51.5810 276° West 432 497 35,000  Level FlightAware ADS-B
Fri 12:01:12 PM 46.0460 -51.6780 276° West 432 497 35,000 867 Level FlightAware ADS-B
Fri 12:02:02 PM 46.0620 -51.8630 277° West 429 494 36,300 1,533 Climbing FlightAware ADS-B
Fri 12:02:42 PM 46.0700 -51.9730 276° West 428 493 37,300 1,275 Climbing FlightAware ADS-B
Fri 12:03:22 PM 46.0790 -52.0840 277° West 423 487 38,000 467 Climbing FlightAware ADS-B
Fri 12:04:12 PM 46.0890 -52.2240 276° West 419 482 38,000  Level FlightAware ADS-B
Fri 12:05:02 PM 46.0980 -52.3420 276° West 419 482 38,000  Level FlightAware ADS-B
Fri 12:05:42 PM 46.1070 -52.4780 276° West 418 481 38,000  Level FlightAware ADS-B
Fri 12:06:27 PM 46.1160 -52.6070 276° West 422 486 38,000  Level FlightAware ADS-B
Fri 12:07:07 PM 46.1240 -52.7150 276° West 422 486 38,000  Level FlightAware ADS-B
Fri 12:07:42 PM 46.1290 -52.8010 275° West 422 486 38,000  Level FlightAware ADS-B
Fri 12:08:32 PM 46.1400 -52.9480 276° West 424 488 38,000  Level FlightAware ADS-B
Fri 12:09:12 PM 46.1480 -53.0670 276° West 424 488 38,000  Level FlightAware ADS-B
Fri 12:09:57 PM 46.1560 -53.1920 275° West 422 486 38,000  Level FlightAware ADS-B
Fri 12:10:37 PM 46.1630 -53.3060 275° West 421 484 38,000  Level FlightAware ADS-B
Fri 12:11:17 PM 46.1700 -53.4180 275° West 420 483 38,000  Level FlightAware ADS-B
Fri 12:12:02 PM 46.1780 -53.5450 275° West 419 482 38,000  Level FlightAware ADS-B
Fri 12:12:42 PM 46.1850 -53.6550 275° West 419 482 38,000  Level FlightAware ADS-B
Fri 12:13:22 PM 46.1910 -53.7670 274° West 419 482 38,000  Level FlightAware ADS-B
Fri 12:14:07 PM 46.1990 -53.8890 275° West 419 482 38,000  Level FlightAware ADS-B
Fri 12:14:47 PM 46.2050 -54.0010 274° West 419 482 38,000  Level FlightAware ADS-B
Fri 12:15:52 PM 46.2150 -54.1820 275° West 421 484 38,000  Level FlightAware ADS-B
Fri 12:16:32 PM 46.2220 -54.2940 275° West 422 486 38,000  Level FlightAware ADS-B
Fri 12:17:57 PM 46.2350 -54.5370 275° West 424 488 38,000  Level FlightAware ADS-B
Fri 12:18:27 PM 46.2390 -54.6150 274° West 425 489 38,000  Level FlightAware ADS-B
Fri 12:19:22 PM 46.2460 -54.7640 274° West 426 490 38,000  Level FlightAware ADS-B
Fri 12:20:02 PM 46.2520 -54.8820 274° West 427 491 38,000  Level FlightAware ADS-B
Fri 12:20:37 PM 46.2570 -54.9740 275° West 427 491 38,000  Level FlightAware ADS-B
Fri 12:21:27 PM 46.2640 -55.1200 274° West 431 496 38,000  Level FlightAware ADS-B
Fri 12:22:07 PM 46.2690 -55.2310 274° West 433 498 38,000  Level FlightAware ADS-B
Fri 12:22:47 PM 46.2750 -55.3540 274° West 435 501 38,000  Level FlightAware ADS-B
Fri 12:23:32 PM 46.2800 -55.4830 273° West 435 501 38,000  Level FlightAware ADS-B
Fri 12:24:12 PM 46.2860 -55.5980 274° West 436 502 38,000  Level FlightAware ADS-B
Fri 12:24:57 PM 46.2910 -55.7220 273° West 437 503 38,000  Level FlightAware ADS-B
Fri 12:25:32 PM 46.2960 -55.8340 274° West 438 504 38,000  Level FlightAware ADS-B
Fri 12:26:17 PM 46.3010 -55.9630 273° West 438 504 38,000  Level FlightAware ADS-B
Fri 12:26:57 PM 46.3050 -56.0800 273° West 437 503 38,000  Level FlightAware ADS-B
Fri 12:27:42 PM 46.3100 -56.2110 273° West 436 502 38,000  Level FlightAware ADS-B
Fri 12:28:27 PM 46.3150 -56.3360 273° West 436 502 38,000  Level FlightAware ADS-B
Fri 12:29:02 PM 46.3190 -56.4320 273° West 435 501 38,000  Level FlightAware ADS-B
Fri 12:30:02 PM 46.3250 -56.6060 273° West 434 499 38,000  Level FlightAware ADS-B
Fri 12:30:57 PM 46.3300 -56.7700 273° West 433 498 38,000  Level FlightAware ADS-B
Fri 12:31:37 PM 46.3340 -56.8900 273° West 433 498 38,000  Level FlightAware ADS-B
Fri 12:32:22 PM 46.3380 -57.0210 273° West 433 498 38,000  Level FlightAware ADS-B
Fri 12:33:02 PM 46.3420 -57.1380 273° West 434 499 38,000  Level FlightAware ADS-B
Fri 12:33:47 PM 46.3460 -57.2740 272° West 435 501 38,000  Level FlightAware ADS-B
Fri 12:34:22 PM 46.3490 -57.3730 273° West 434 499 38,000  Level FlightAware ADS-B
Fri 12:35:07 PM 46.3510 -57.4890 271° West 434 499 38,000  Level FlightAware ADS-B
Fri 12:35:52 PM 46.3550 -57.6340 272° West 431 496 38,000  Level FlightAware ADS-B
Fri 12:36:37 PM 46.3590 -57.7650 273° West 430 495 38,000  Level FlightAware ADS-B
Fri 12:37:17 PM 46.3620 -57.8800 272° West 430 495 38,000  Level FlightAware ADS-B
Fri 12:37:57 PM 46.3640 -57.9950 271° West 429 494 38,000  Level FlightAware ADS-B
Fri 12:38:42 PM 46.3670 -58.1230 272° West 429 494 38,000  Level FlightAware ADS-B
Fri 12:39:22 PM 46.3690 -58.2360 272° West 429 494 38,000  Level FlightAware ADS-B
Fri 12:40:02 PM 46.3710 -58.3500 271° West 429 494 38,000  Level FlightAware ADS-B
Fri 12:40:47 PM 46.3740 -58.4810 272° West 430 495 38,000  Level FlightAware ADS-B
Fri 12:41:27 PM 46.3760 -58.5990 271° West 430 495 38,000  Level FlightAware ADS-B
Fri 12:42:07 PM 46.3780 -58.7080 272° West 430 495 38,000  Level FlightAware ADS-B
Fri 12:42:52 PM 46.3800 -58.8410 271° West 430 495 38,000  Level FlightAware ADS-B
Fri 12:43:32 PM 46.3810 -58.9570 271° West 430 495 38,000  Level FlightAware ADS-B
Fri 12:44:17 PM 46.3830 -59.0830 271° West 430 495 38,000  Level FlightAware ADS-B
Fri 12:44:57 PM 46.3850 -59.1980 271° West 431 496 38,000  Level FlightAware ADS-B
Fri 12:45:42 PM 46.3860 -59.3290 271° West 431 496 38,000  Level FlightAware ADS-B
Fri 12:46:22 PM 46.3870 -59.4450 271° West 432 497 38,000  Level FlightAware ADS-B
Fri 12:47:07 PM 46.3880 -59.5720 271° West 433 498 38,000  Level FlightAware ADS-B
Fri 12:47:47 PM 46.3890 -59.6880 271° West 433 498 38,000  Level FlightAware ADS-B
Fri 12:48:32 PM 46.3900 -59.8170 271° West 431 496 38,000  Level FlightAware ADS-B
Fri 12:49:12 PM 46.3910 -59.9350 271° West 431 496 38,000  Level FlightAware ADS-B
Fri 12:49:52 PM 46.3910 -60.0510 270° West 431 496 38,000  Level FlightAware ADS-B
Fri 12:50:37 PM 46.3920 -60.1750 271° West 432 497 38,000  Level FlightAware ADS-B
Fri 12:51:17 PM 46.3920 -60.2910 270° West 433 498 38,000  Level FlightAware ADS-B
Fri 12:51:57 PM 46.3920 -60.4090 270° West 434 499 38,000  Level FlightAware ADS-B
Fri 12:52:37 PM 46.3920 -60.5240 270° West 434 499 38,000  Level FlightAware ADS-B
Fri 12:53:37 PM 46.3920 -60.6970 270° West 435 501 38,000  Level FlightAware ADS-B
Fri 12:54:17 PM 46.3920 -60.8110 270° West 435 501 38,000  Level FlightAware ADS-B
Fri 12:55:02 PM 46.3920 -60.9490 270° West 435 501 38,000  Level FlightAware ADS-B
Fri 12:55:42 PM 46.3910 -61.0640 269° West 434 499 38,000  Level FlightAware ADS-B
Fri 12:56:27 PM 46.3910 -61.1910 270° West 432 497 38,000  Level FlightAware ADS-B
Fri 12:57:07 PM 46.3900 -61.3050 269° West 432 497 38,000  Level FlightAware ADS-B
Fri 12:57:47 PM 46.3890 -61.4220 269° West 432 497 38,000  Level FlightAware ADS-B
Fri 12:58:27 PM 46.3880 -61.5370 269° West 433 498 38,000  Level FlightAware ADS-B
Fri 12:59:12 PM 46.3870 -61.6700 269° West 433 498 38,000  Level FlightAware ADS-B
Fri 12:59:57 PM 46.3850 -61.7990 269° West 432 497 38,000  Level FlightAware ADS-B
Fri 01:00:37 PM 46.3840 -61.9120 269° West 432 497 38,000  Level FlightAware ADS-B
Fri 01:01:22 PM 46.3820 -62.0450 269° West 433 498 38,000  Level FlightAware ADS-B
Fri 01:02:02 PM 46.3810 -62.1610 269° West 435 501 38,000  Level FlightAware ADS-B
Fri 01:02:42 PM 46.3790 -62.2760 269° West 435 501 38,000  Level FlightAware ADS-B
Fri 01:03:37 PM 46.3760 -62.4280 268° West 436 502 38,000  Level FlightAware ADS-B
Fri 01:04:17 PM 46.3740 -62.5270 268° West 436 502 38,000  Level FlightAware ADS-B
Fri 01:04:57 PM 46.3730 -62.6610 269° West 435 501 38,000  Level FlightAware ADS-B
Fri 01:05:47 PM 46.3700 -62.8040 268° West 435 501 38,000  Level FlightAware ADS-B
Fri 01:06:17 PM 46.3680 -62.8890 268° West 435 501 38,000  Level FlightAware ADS-B
Fri 01:07:07 PM 46.3650 -63.0380 268° West 434 499 38,000  Level FlightAware ADS-B
Fri 01:07:52 PM 46.3620 -63.1590 268° West 434 499 38,000  Level FlightAware ADS-B
Fri 01:08:47 PM 46.3580 -63.3260 268° West 434 499 38,000  Level FlightAware ADS-B
Fri 01:09:27 PM 46.3560 -63.4250 268° West 434 499 38,000  Level FlightAware ADS-B
Fri 01:10:07 PM 46.3540 -63.5240 268° West 434 499 38,000  Level FlightAware ADS-B
Fri 01:10:47 PM 46.3510 -63.6220 267° West 434 499 38,000  Level FlightAware ADS-B
Fri 01:11:27 PM 46.3490 -63.7210 268° West 434 499 38,000  Level FlightAware ADS-B
Fri 01:12:17 PM 46.3460 -63.8450 268° West 434 499 38,000  Level FlightAware ADS-B
Fri 01:12:57 PM 46.3430 -63.9440 268° West 434 499 38,000  Level FlightAware ADS-B
Fri 01:13:37 PM 46.3410 -64.0430 268° West 434 499 38,000  Level FlightAware ADS-B
Fri 01:14:17 PM 46.3390 -64.1410 268° West 434 499 38,000  Level FlightAware ADS-B
Fri 01:15:07 PM 46.3360 -64.2650 268° West 434 499 38,000  Level FlightAware ADS-B
Fri 01:15:47 PM 46.3330 -64.3640 268° West 434 499 38,000  Level FlightAware ADS-B
Fri 01:16:27 PM 46.3310 -64.4630 268° West 434 499 38,000  Level FlightAware ADS-B
Fri 01:17:07 PM 46.3280 -64.5610 267° West 434 499 38,000  Level FlightAware ADS-B
Fri 01:17:47 PM 46.3260 -64.6600 268° West 434 499 38,000  Level FlightAware ADS-B
Fri 01:18:08 PM 46.3000 -64.9500 268° West 450 518 38,000  Level Moncton Center
Fri 01:24:12 PM 46.2600 -66.0390 268° West 437 503 38,000  Level FlightAware ADS-B
Fri 01:24:52 PM 46.2540 -66.1570 266° West 439 505 38,000  Level FlightAware ADS-B
Fri 01:25:27 PM 46.2500 -66.2470 266° West 440 506 38,000  Level FlightAware ADS-B
Fri 01:26:17 PM 46.2420 -66.4000 266° West 441 507 38,000  Level FlightAware ADS-B
Fri 01:27:02 PM 46.2350 -66.5370 266° West 440 506 38,000  Level FlightAware ADS-B
Fri 01:27:37 PM 46.2300 -66.6290 266° West 439 505 38,000  Level FlightAware ADS-B
Fri 01:28:37 PM 46.2200 -66.7960 265° West 439 505 38,000  Level FlightAware ADS-B
Fri 01:29:17 PM 46.2140 -66.8960 265° West 439 505 38,000  Level FlightAware ADS-B
Fri 01:29:57 PM 46.2080 -66.9950 265° West 439 505 38,000  Level FlightAware ADS-B
Fri 01:32:07 PM 46.1860 -67.4060 266° West 426 490 38,000  Level FlightAware ADS-B
Fri 01:32:42 PM 46.1790 -67.5040 264° West 426 490 38,000  Level FlightAware ADS-B
Fri 01:33:32 PM 46.1710 -67.6510 266° West 425 489 38,000  Level FlightAware ADS-B
Fri 01:34:27 PM 46.1610 -67.8060 265° West 425 489 38,000  Level FlightAware ADS-B
Fri 01:35:12 PM 46.1520 -67.9330 264° West 426 490 38,000  Level FlightAware ADS-B
Fri 01:35:52 PM 46.1450 -68.0440 265° West 425 489 38,000  Level FlightAware ADS-B
Fri 01:36:32 PM 46.1380 -68.1580 265° West 426 490 38,000  Level FlightAware ADS-B
Fri 01:37:17 PM 46.1290 -68.2850 264° West 427 491 38,000  Level FlightAware ADS-B
Fri 01:37:57 PM 46.1210 -68.3970 264° West 427 491 38,000  Level FlightAware ADS-B
Fri 01:38:42 PM 46.1120 -68.5250 264° West 427 491 38,000  Level FlightAware ADS-B
Fri 01:39:22 PM 46.1050 -68.6360 265° West 427 491 38,000  Level FlightAware ADS-B
Fri 01:40:02 PM 46.0960 -68.7490 263° West 427 491 38,000  Level FlightAware ADS-B
Fri 01:40:47 PM 46.0870 -68.8760 264° West 426 490 38,000  Level FlightAware ADS-B
Fri 01:41:27 PM 46.0790 -68.9890 264° West 425 489 38,000  Level FlightAware ADS-B
Fri 01:42:07 PM 46.0700 -69.1010 263° West 424 488 38,000  Level FlightAware ADS-B
Fri 01:42:52 PM 46.0610 -69.2260 264° West 423 487 38,000  Level FlightAware ADS-B
Fri 01:43:32 PM 46.0520 -69.3360 263° West 420 483 38,000  Level FlightAware ADS-B
Fri 01:44:17 PM 46.0430 -69.4610 264° West 418 481 38,000  Level FlightAware ADS-B
Fri 01:44:57 PM 46.0340 -69.5720 263° West 417 480 38,000  Level FlightAware ADS-B
Fri 01:45:42 PM 46.0240 -69.6940 263° West 416 479 38,000  Level FlightAware ADS-B
Fri 01:46:22 PM 46.0150 -69.8040 263° West 415 478 38,000  Level FlightAware ADS-B
Fri 01:47:02 PM 46.0060 -69.9120 263° West 415 478 38,000  Level FlightAware ADS-B
Fri 01:47:47 PM 45.9960 -70.0350 263° West 416 479 38,000  Level FlightAware ADS-B
Fri 01:48:27 PM 45.9870 -70.1450 263° West 417 480 38,000  Level FlightAware ADS-B
Fri 01:49:07 PM 45.9770 -70.2540 263° West 417 480 38,000  Level FlightAware ADS-B
Fri 01:49:52 PM 45.9670 -70.3770 263° West 416 479 38,000  Level FlightAware ADS-B
Fri 01:50:32 PM 45.9570 -70.4860 263° West 415 478 38,000  Level FlightAware ADS-B
Fri 01:51:17 PM 45.9470 -70.6070 263° West 414 476 38,000  Level FlightAware ADS-B
Fri 01:51:57 PM 45.9370 -70.7170 263° West 411 473 38,000  Level FlightAware ADS-B
Fri 01:52:42 PM 45.9260 -70.8380 263° West 410 472 38,000  Level FlightAware ADS-B
Fri 01:53:22 PM 45.9170 -70.9450 263° West 410 472 38,000  Level FlightAware ADS-B
Fri 01:54:02 PM 45.9080 -71.0520 263° West 409 471 38,000  Level FlightAware ADS-B
Fri 01:54:47 PM 45.8970 -71.1730 263° West 407 468 38,000  Level FlightAware ADS-B
Fri 01:55:27 PM 45.8880 -71.2790 263° West 406 467 38,000  Level FlightAware ADS-B
Fri 01:56:12 PM 45.8770 -71.3990 263° West 405 466 38,000  Level FlightAware ADS-B
Fri 01:56:52 PM 45.8670 -71.5050 262° West 405 466 38,000  Level FlightAware ADS-B
Fri 01:57:32 PM 45.8580 -71.6110 263° West 405 466 38,000 -706 Level FlightAware ADS-B
Fri 01:58:17 PM 45.8470 -71.7300 262° West 410 472 37,000 -1,412 Descending FlightAware ADS-B
Fri 01:58:57 PM 45.8370 -71.8390 263° West 414 476 36,000 -2,100 Descending FlightAware ADS-B
Fri 01:59:37 PM 45.8260 -71.9480 262° West 414 476 34,200 -2,965 Descending FlightAware ADS-B
Fri 02:00:22 PM 45.8150 -72.0680 263° West 402 463 31,800 -2,682 Descending FlightAware ADS-B
Fri 02:01:02 PM 45.8050 -72.1680 262° West 374 430 30,400 -2,329 Descending FlightAware ADS-B
Fri 02:01:47 PM 45.7940 -72.2810 262° West 390 449 28,500 -2,541 Descending FlightAware ADS-B
Fri 02:02:27 PM 45.7840 -72.3830 262° West 390 449 26,800 -2,550 Descending FlightAware ADS-B
Fri 02:03:07 PM 45.7740 -72.4830 262° West 388 447 25,100 -2,541 Descending FlightAware ADS-B
Fri 02:03:52 PM 45.7620 -72.5980 262° West 382 440 23,200 -2,400 Descending FlightAware ADS-B
Fri 02:04:32 PM 45.7530 -72.6890 262° West 377 434 21,700 -2,541 Descending FlightAware ADS-B
Fri 02:05:17 PM 45.7410 -72.8120 262° West 368 423 19,600 -2,541 Descending FlightAware ADS-B
Fri 02:05:57 PM 45.7310 -72.9060 261° West 362 417 18,100 -2,325 Descending FlightAware ADS-B
Fri 02:06:37 PM 45.7210 -73.0010 261° West 355 409 16,500 -2,259 Descending FlightAware ADS-B
Fri 02:07:22 PM 45.7100 -73.1020 261° West 349 402 14,900 -2,188 Descending FlightAware ADS-B
Fri 02:08:02 PM 45.6820 -73.1830 244° Southwest 340 391 13,400 -2,188 Descending FlightAware ADS-B
Fri 02:08:47 PM 45.6450 -73.2690 238° Southwest 336 387 11,800 -2,047 Descending FlightAware ADS-B
Fri 02:09:27 PM 45.6110 -73.3430 237° Southwest 326 375 10,500 -1,350 Descending FlightAware ADS-B
Fri 02:10:07 PM 45.5820 -73.4100 238° Southwest 300 345 10,000 -771 Descending FlightAware ADS-B
Fri 02:10:37 PM 45.5530 -73.4540 227° Southwest 280 322 9,600 -800 Descending FlightAware ADS-B
Fri 02:10:52 PM 45.5400 -73.4710 222° Southwest 273 314 9,400 -1,200 Descending FlightAware ADS-B
Fri 02:11:17 PM 45.5160 -73.5030 223° Southwest 266 306 8,800 -1,418 Descending FlightAware ADS-B
Fri 02:11:47 PM 45.4890 -73.5390 223° Southwest 264 304 8,100 -1,091 Descending FlightAware ADS-B
Fri 02:12:12 PM 45.4690 -73.5660 223° Southwest 257 296 7,800 -1,309 Descending FlightAware ADS-B
Fri 02:12:42 PM 45.4420 -73.6010 222° Southwest 260 299 6,900 -1,745 Descending FlightAware ADS-B
Fri 02:13:07 PM 45.4200 -73.6300 223° Southwest 264 304 6,200 -1,636 Descending FlightAware ADS-B
Fri 02:13:37 PM 45.3930 -73.6650 222° Southwest 254 292 5,400 -1,733 Descending FlightAware ADS-B
Fri 02:13:52 PM 45.3810 -73.6810 223° Southwest 247 284 4,900 -2,000 Descending FlightAware ADS-B
Fri 02:14:22 PM 45.3560 -73.7140 223° Southwest 234 269 3,900 -1,745 Descending FlightAware ADS-B
Fri 02:14:47 PM 45.3360 -73.7400 222° Southwest 231 266 3,300 -1,200 Descending FlightAware ADS-B
Fri 02:15:02 PM 45.3270 -73.7560 231° Southwest 226 260 3,100 -450 Descending FlightAware ADS-B
Fri 02:15:27 PM 45.3130 -73.7890 239° Southwest 211 243 3,000 -109 Descending FlightAware ADS-B
Fri 02:15:57 PM 45.3240 -73.8270 292° West 217 250 3,000 -400 Level FlightAware ADS-B
Fri 02:16:27 PM 45.3460 -73.8540 319° Northwest 211 243 2,600 -873 Descending FlightAware ADS-B
Fri 02:16:52 PM 45.3690 -73.8620 346° North 203 234 2,200 -764 Descending FlightAware ADS-B
Fri 02:17:22 PM 45.3950 -73.8550 11° North 194 223 1,900 -667 Descending FlightAware ADS-B
Fri 02:17:37 PM 45.4040 -73.8410 48° Northeast 185 213 1,700 -1,000 Descending FlightAware ADS-B
Fri 02:17:52 PM 45.4110 -73.8280 53° Northeast 177 204 1,400 -1,200 Descending FlightAware ADS-B

Login

Don't have an account? Register now (free) for customized features, flight alerts, and more!